Pineville, MO

5:46 AM CDT on October 22, 2014 (GMT -0500)
NW Arkansas Airport | Change Station
CLOSE
Current Station
Airport
Location: NW Arkansas Airport,
Elevation: 1286 ft
Nearby Weather Stations

Elev 1286 ft 36.28 °N, 94.31 °W | Updated 32 minutes ago

Partly Cloudy
Partly Cloudy
51 °F
Feels Like 51 °F
N
4
Wind Variable Wind from NE

Today
High -- | Low -- °F
--% Chance of Precip.
Yesterday
High -- | Low -- °F
Precip. -- in
7:31 AM 6:32 PM
Waning Crescent, 2% visible
Pressure 30.14 in
Visibility 6.0 miles
Clouds Mostly Cloudy 5000 ft
Dew Point 49 °F
Humidity 92%
Rainfall 0.00 in
Snow Depth Not available.
UV 0 out of 12
Pollen 2.20 out of 12
Air Quality Not available.
Flu Activity No Activity
SPECI KXNA 221014Z 04003KT 6SM BR BKN050 11/09 A3014 RMK AO2 T01060094

More Conditions Fewer Conditions

Pressure 30.14 in
Visibility 6.0 miles
Clouds Mostly Cloudy 5000 ft
Dew Point 49 °F
Humidity 92%
Rainfall 0.00 in
Snow Depth Not available.
UV 0 out of 12
Pollen 2.20 out of 12
Air Quality Not available.
Flu Activity No Activity
SPECI KXNA 221014Z 04003KT 6SM BR BKN050 11/09 A3014 RMK AO2 T01060094

More Conditions Fewer Conditions

10-Day Weather Forecast

Almanac

Astronomy

Oct. 22, 2014 Rise Set
Actual Time 7:31 AM CDT 6:32 PM CDT
Civil Twilight 7:04 AM CDT 6:58 PM CDT
Nautical Twilight 6:34 AM CDT 7:28 PM CDT
Astronomical Twilight 6:04 AM CDT 7:58 PM CDT
Moon 6:15 AM CDT 5:57 PM CDT
Length of Visible Light 11h 53m
Length of Day
11h 00m
Tomorrow will be 2m 10s shorter.
Waning Crescent, 2% of the Moon is Illuminated
Today
Waning Crescent
Oct 23
New
Oct 30
First Quarter
Nov 6
Full
Nov 14
Last Quarter

Today's Extremes

State Highs State Lows

Community

WunderPhotos

Upload Photos

1,763,902 photos uploaded!

Nearby

Snow Depth

Station Depth Elevation
No new snow has been reported.

Earthquake Activity

City Distance Mag. Time & Date
No recent earthquake activity has been reported nearby.
Minimum magnitude displayed is 2.5.

Coastal Water Temperatures

Place Temperature
No Stations Reporting

Nearby Weather Stations